»·PEaware :: N286WF CL46-KSBA

N286WF :: CL46-KSBA

FLIGHT INFORMATION

Flight Status: Arrived
Operator: Privately registered:
United States
More flights under this callsign
Pilot: Frank W. (16848)
Aircraft: Unknown
(P28U)
More flights by this aircraft type
Origin: CL46 Quail Lake Sky Park
Canada
Destination: KSBA Santa Barbara Mun
United States
More flights between these airports :: More routes between these airports
Route: FIM
File this flight plan on PilotEdge
Remarks:
Altitude:
(Current/Filed)
6,500ft
Speed:
(Current/Filed)
140kts
Departed: 29-Jan-19 03:32 PM
Arrived: 29-Jan-19 05:05 PM
Distance/Time
Traveled:
58nm/1:33
Distance/Time
To Go:
Arrived

Flight Plot

Page will automatically refresh every two minutes.

Flight plan parsing failed; only flown route is shown


Map Options




Map Legend


Flown Route
Filed Route
Departure Airport
Arrival Airport
Navaid (VOR, NDB)
Fix

Horizontal Profiles

Position Reports

Time Latitude Longitude Heading Altitude Ground
Speed
29-Jan-19 15:19 34.767327 -118.736149 74 3373ft 0kts
29-Jan-19 15:20 34.767327 -118.736149 74 3373ft 0kts
29-Jan-19 15:21 34.767327 -118.736149 74 3373ft 0kts
29-Jan-19 15:22 34.767327 -118.736149 74 3373ft 0kts
29-Jan-19 15:23 34.767327 -118.736149 74 3373ft 0kts
29-Jan-19 15:24 34.767327 -118.736149 74 3373ft 0kts
29-Jan-19 15:24 34.767327 -118.736149 74 3373ft 0kts
29-Jan-19 15:25 34.767327 -118.736149 74 3373ft 0kts
29-Jan-19 15:26 34.767327 -118.736149 74 3373ft 0kts
29-Jan-19 15:27 34.767555 -118.735884 21 3373ft 6kts
29-Jan-19 15:29 34.768213 -118.735566 99 3373ft 0kts
29-Jan-19 15:30 34.768213 -118.735566 99 3373ft 0kts
29-Jan-19 15:31 34.768213 -118.735566 99 3373ft 0kts
29-Jan-19 15:32 34.767470 -118.730354 98 3382ft 90kts
29-Jan-19 15:32 34.766790 -118.701519 89 4555ft 107kts
29-Jan-19 15:33 34.782648 -118.704820 285 6019ft 109kts
29-Jan-19 15:34 34.786810 -118.749489 285 6319ft 139kts
29-Jan-19 15:35 34.808809 -118.787914 262 6307ft 143kts
29-Jan-19 15:36 34.774419 -118.808164 170 6723ft 142kts
29-Jan-19 15:37 34.735259 -118.809360 194 6771ft 153kts
29-Jan-19 15:38 34.690314 -118.805006 173 6562ft 164kts
29-Jan-19 15:39 34.646377 -118.798917 184 6423ft 156kts
29-Jan-19 15:40 34.605047 -118.809372 207 6268ft 149kts
29-Jan-19 15:41 34.570030 -118.832228 211 6350ft 139kts
29-Jan-19 15:42 34.535360 -118.854246 208 6343ft 142kts
29-Jan-19 15:43 34.495802 -118.862767 185 6265ft 152kts
29-Jan-19 15:44 34.454252 -118.864496 192 6181ft 148kts
29-Jan-19 15:45 34.414263 -118.872516 195 6211ft 142kts
29-Jan-19 15:46 34.374646 -118.875281 182 6327ft 143kts
29-Jan-19 15:47 34.360328 -118.904437 313 6289ft 137kts
29-Jan-19 15:48 34.373846 -118.940088 251 6262ft 135kts
29-Jan-19 15:49 34.367919 -118.983163 269 6273ft 126kts
29-Jan-19 15:50 34.368950 -119.025424 273 6273ft 124kts
29-Jan-19 15:51 34.370895 -119.057033 274 6274ft 124kts
29-Jan-19 15:52 34.373822 -119.098031 274 6276ft 124kts
29-Jan-19 16:16 34.198726 -119.202074 359 38ft 0kts
29-Jan-19 16:17 34.198726 -119.202074 359 38ft 0kts
29-Jan-19 16:18 34.198726 -119.202074 359 38ft 0kts
29-Jan-19 16:19 34.198726 -119.202074 359 38ft 0kts
29-Jan-19 16:20 34.198726 -119.202074 359 38ft 0kts
29-Jan-19 16:21 34.198726 -119.202074 359 38ft 0kts
29-Jan-19 16:22 34.198726 -119.202074 359 38ft 0kts
29-Jan-19 16:23 34.198726 -119.202074 359 38ft 0kts
29-Jan-19 16:24 34.198726 -119.202074 359 38ft 0kts
29-Jan-19 16:25 34.346833 -119.060890 359 247ft 0kts
29-Jan-19 16:26 34.346833 -119.060890 359 247ft 0kts
29-Jan-19 16:27 34.346833 -119.060889 359 247ft 0kts
29-Jan-19 16:28 34.346833 -119.060889 359 247ft 0kts
29-Jan-19 16:29 34.346833 -119.060889 359 247ft 0kts
29-Jan-19 16:30 34.346833 -119.060889 359 247ft 0kts
29-Jan-19 16:31 34.346833 -119.060889 359 247ft 0kts
29-Jan-19 16:32 34.346833 -119.060889 359 247ft 0kts
29-Jan-19 16:33 34.347929 -119.059556 59 247ft 21kts
29-Jan-19 16:34 34.348580 -119.058134 328 247ft 0kts
29-Jan-19 16:35 34.348845 -119.058128 239 247ft 0kts
29-Jan-19 16:36 34.343532 -119.068315 240 514ft 84kts
29-Jan-19 16:37 34.340649 -119.094628 302 1947ft 104kts
29-Jan-19 16:38 34.361386 -119.116290 322 3666ft 98kts
29-Jan-19 16:39 34.370294 -119.141396 249 5163ft 89kts
29-Jan-19 16:40 34.363805 -119.173592 264 6210ft 92kts
29-Jan-19 16:41 34.363952 -119.211638 272 6370ft 141kts
29-Jan-19 16:42 34.367438 -119.256872 275 6507ft 135kts
29-Jan-19 16:43 34.371894 -119.302397 275 6507ft 136kts
29-Jan-19 16:44 34.376562 -119.348204 274 6503ft 138kts
29-Jan-19 16:45 34.381267 -119.394541 273 6500ft 139kts
29-Jan-19 16:46 34.386042 -119.441760 272 6497ft 142kts
29-Jan-19 16:47 34.390574 -119.486582 271 6491ft 123kts
29-Jan-19 16:48 34.394530 -119.526484 270 6490ft 117kts
29-Jan-19 16:49 34.398414 -119.565597 270 6490ft 116kts
29-Jan-19 16:50 34.402348 -119.600100 272 6012ft 94kts
29-Jan-19 17:04 34.422849 -119.835934 267 15ft 0kts

Navigation Log

Ident Type
Flight plan parsing failed, navigation log unavailable